シカゴ/オヘア の空港の天気 - METARとTAF

シカゴ・オヘア国際空港 ( KORD / ORD ) - アメリカ イリノイ州シカゴ
飛行場実況気象(Metar)
観測時間12/09 22:51 CST (12/10 04:51 UTC)
風向・風速北北西 2m/s
視程9650m
天気現象もや
少しの雲 雲底高度 150m
気温-6.7℃
湿度88%
気圧1027.1hPa
METARKORD 100451Z 33003KT 6SM BR FEW005 M07/M08 A3030 RMK AO2 SLP271 I1000 T10671083 $
過去の天気等 Google飛行場航空写真 Wunderground天気予報

過去48時間のMETAR

飛行場予報(TAF)
発表時間: 12/09 21:19 CST (12/10 03:19 UTC)
予報対象時間: 9日21時 CST ~ 11日0時 CST
風向・風速西北西 2m/s
視程6440m
天気現象もや
少しの雲 雲底高度 90m
全天の4割程度の雲 雲底高度 180m
10日8時 CST から
風向・風速西 3m/s
視程10km以上
全天の4割程度の雲 雲底高度 460m
10日12時 CST から
風向・風速南西 5m/s
視程10km以上
少しの雲 雲底高度 610m
KORD 100319Z 1003/1106 29003KT 4SM BR FEW003 SCT006
FM101400 26005KT P6SM SCT015
FM101800 23010KT P6SM FEW020